Time;durP1;ratioP1;P1;durP2;ratioP2;P2;SDS_P1;SDS_P2;PMS_P1;PMS_P2;Temp;Humidity;BMP_temperature;BMP_pressure;BME280_temperature;BME280_humidity;BME280_pressure;Samples;Min_cycle;Max_cycle;Signal;HPM_P1;HPM_P2
2021/07/04 00:00:35;;;;;;;2.67;2.50;;;;;;;16.63;88.98;96277.34;5074967;28;20040;-73
2021/07/04 00:03:04;;;;;;;2.20;2.10;;;;;;;16.65;88.66;96275.22;5074531;28;20041;-74
2021/07/04 00:05:51;;;;;;;2.33;2.22;;;;;;;16.65;89.82;96267.28;5074671;28;20043;-74
2021/07/04 00:08:22;;;;;;;2.85;2.60;;;;;;;16.62;88.88;96267.81;5074335;28;20404;-73
2021/07/04 00:10:55;;;;;;;3.38;3.10;;;;;;;16.58;89.40;96266.75;5074615;28;20055;-74
2021/07/04 00:13:24;;;;;;;3.30;3.10;;;;;;;16.51;88.87;96261.69;5074447;28;20025;-74
2021/07/04 00:15:51;;;;;;;3.25;3.05;;;;;;;16.44;89.29;96274.38;5065539;28;20036;-74
2021/07/04 00:18:22;;;;;;;2.72;2.53;;;;;;;16.43;89.65;96260.34;5073788;28;20048;-73
2021/07/04 00:20:50;;;;;;;3.17;2.97;;;;;;;16.45;89.90;96254.78;5073956;28;20044;-74
2021/07/04 00:23:19;;;;;;;2.63;2.42;;;;;;;16.43;90.15;96252.41;5074380;28;20040;-74
2021/07/04 00:25:48;;;;;;;3.65;2.90;;;;;;;16.45;90.28;96252.16;5074113;28;20037;-74
2021/07/04 00:28:23;;;;;;;2.78;2.58;;;;;;;16.44;90.06;96239.94;5073840;28;20044;-73
2021/07/04 00:30:51;;;;;;;3.45;2.35;;;;;;;16.48;90.35;96240.25;5074243;28;20048;-74
2021/07/04 00:33:30;;;;;;;2.55;2.40;;;;;;;16.51;90.39;96239.75;5073956;28;20048;-74
2021/07/04 00:35:58;;;;;;;2.42;2.28;;;;;;;16.54;90.37;96250.56;5074245;28;20385;-74
2021/07/04 00:38:26;;;;;;;2.85;2.65;;;;;;;16.55;90.28;96241.59;5073801;28;20024;-74
2021/07/04 00:40:53;;;;;;;2.58;2.47;;;;;;;16.54;90.18;96240.00;5074243;28;20040;-74
2021/07/04 00:43:20;;;;;;;3.08;2.75;;;;;;;16.50;89.88;96238.13;5073408;28;20051;-73
2021/07/04 00:45:49;;;;;;;2.58;2.38;;;;;;;16.47;90.11;96231.50;5073257;28;20052;-74
2021/07/04 00:48:16;;;;;;;3.00;2.80;;;;;;;16.48;90.15;96237.59;5073803;28;20396;-74
2021/07/04 00:50:42;;;;;;;3.20;2.90;;;;;;;16.47;90.26;96228.06;5073972;28;20039;-74
2021/07/04 00:53:09;;;;;;;2.78;2.58;;;;;;;16.45;90.11;96236.28;5073539;28;20465;-74
2021/07/04 00:55:36;;;;;;;2.63;2.53;;;;;;;16.45;90.24;96220.38;5073866;28;20036;-74
2021/07/04 00:58:04;;;;;;;2.97;2.78;;;;;;;16.42;90.12;96229.66;5073653;28;20028;-74
2021/07/04 01:00:38;;;;;;;2.97;2.83;;;;;;;16.43;90.61;96233.09;5073819;28;20040;-74
2021/07/04 01:03:06;;;;;;;2.70;2.60;;;;;;;16.36;90.39;96222.75;5073133;28;20044;-74
2021/07/04 01:05:38;;;;;;;3.20;2.90;;;;;;;16.32;90.58;96223.53;5073154;28;20040;-75
2021/07/04 01:08:06;;;;;;;3.45;2.92;;;;;;;16.29;90.63;96224.81;5072960;28;20045;-74
2021/07/04 01:10:35;;;;;;;2.60;2.42;;;;;;;16.31;90.77;96220.06;5072721;28;20474;-74
2021/07/04 01:13:03;;;;;;;2.60;2.50;;;;;;;16.34;90.89;96230.16;5072858;28;20140;-74
2021/07/04 01:15:29;;;;;;;2.65;2.55;;;;;;;16.38;91.03;96227.78;5073383;28;20040;-74
2021/07/04 01:17:57;;;;;;;3.10;2.80;;;;;;;16.37;90.92;96226.19;5073184;28;20052;-74
2021/07/04 01:20:26;;;;;;;2.38;2.28;;;;;;;16.36;90.75;96228.03;5074015;28;20039;-74
2021/07/04 01:22:56;;;;;;;2.92;2.72;;;;;;;16.37;91.07;96226.19;5073766;28;20041;-74
2021/07/04 01:25:23;;;;;;;2.72;2.53;;;;;;;16.39;90.86;96224.06;5073282;28;20460;-74
2021/07/04 01:27:49;;;;;;;2.90;2.70;;;;;;;16.40;90.89;96225.69;5073040;28;20040;-74
2021/07/04 01:30:18;;;;;;;2.50;2.40;;;;;;;16.41;90.79;96224.59;5073335;28;20039;-74
2021/07/04 01:32:44;;;;;;;2.70;2.47;;;;;;;16.41;90.86;96222.75;5072553;28;20044;-74
2021/07/04 01:35:12;;;;;;;2.42;2.33;;;;;;;16.42;90.86;96212.94;5073401;28;20059;-74
2021/07/04 01:37:40;;;;;;;2.58;2.38;;;;;;;16.42;90.62;96213.78;5073248;28;20031;-74
2021/07/04 01:40:09;;;;;;;2.47;2.30;;;;;;;16.42;90.67;96219.06;5072930;28;20384;-74
2021/07/04 01:42:39;;;;;;;2.40;2.30;;;;;;;16.44;90.77;96218.78;5073076;28;20111;-74
2021/07/04 01:45:08;;;;;;;2.50;2.30;;;;;;;16.46;90.63;96218.53;5071203;28;20045;-73
2021/07/04 01:47:38;;;;;;;2.70;2.60;;;;;;;16.46;90.52;96221.97;5073270;28;20465;-74
2021/07/04 01:50:10;;;;;;;2.78;2.65;;;;;;;16.46;90.48;96223.81;5073289;28;20032;-74
2021/07/04 01:52:37;;;;;;;2.65;2.45;;;;;;;16.46;90.29;96221.19;5072503;28;20517;-74
2021/07/04 01:55:07;;;;;;;2.85;2.40;;;;;;;16.44;90.23;96216.94;5072553;28;20028;-74
2021/07/04 01:57:35;;;;;;;2.60;2.42;;;;;;;16.45;90.24;96215.09;5072651;28;20036;-74
2021/07/04 02:00:12;;;;;;;2.42;2.33;;;;;;;16.46;90.29;96218.53;5072848;28;21695;-74
2021/07/04 02:02:40;;;;;;;2.70;2.50;;;;;;;16.43;90.29;96220.63;5072986;28;20385;-75
2021/07/04 02:05:08;;;;;;;2.78;2.58;;;;;;;16.44;90.15;96224.88;5058219;28;20040;-74
2021/07/04 02:07:34;;;;;;;2.70;2.17;;;;;;;16.44;90.11;96227.53;5072618;28;20397;-74
2021/07/04 02:10:03;;;;;;;2.35;2.15;;;;;;;16.44;89.98;96229.38;5072913;28;20029;-74
2021/07/04 02:12:29;;;;;;;2.42;2.25;;;;;;;16.43;90.02;96220.63;5072829;28;20376;-75
2021/07/04 02:14:56;;;;;;;2.90;2.70;;;;;;;16.42;90.03;96221.72;5072643;28;20032;-74
2021/07/04 02:17:24;;;;;;;2.42;2.22;;;;;;;16.43;89.96;96222.50;5072992;28;20044;-73
2021/07/04 02:19:52;;;;;;;2.53;2.33;;;;;;;16.41;90.16;96217.47;5075966;28;20044;-74
2021/07/04 02:22:19;;;;;;;2.80;2.60;;;;;;;16.40;90.09;96218.53;5076999;28;20024;-74
2021/07/04 02:24:46;;;;;;;2.50;2.30;;;;;;;16.39;89.95;96216.13;5076856;28;20040;-74
2021/07/04 02:27:13;;;;;;;2.83;2.63;;;;;;;16.38;90.14;96212.69;5076392;28;20041;-74
2021/07/04 02:29:41;;;;;;;2.40;2.30;;;;;;;16.35;90.08;96202.63;5076305;28;20025;-74
2021/07/04 02:32:08;;;;;;;2.08;1.98;;;;;;;16.35;90.40;96207.91;5076855;28;20385;-74
2021/07/04 02:34:34;;;;;;;2.78;2.58;;;;;;;16.35;90.29;96207.13;5075815;28;20040;-74
2021/07/04 02:37:00;;;;;;;2.08;1.98;;;;;;;16.34;90.27;96208.19;5076533;28;20028;-74
2021/07/04 02:39:27;;;;;;;3.05;2.20;;;;;;;16.34;90.27;96213.47;5076445;28;20052;-74
2021/07/04 02:41:53;;;;;;;2.42;2.33;;;;;;;16.33;90.17;96211.88;5076415;28;20075;-74
2021/07/04 02:44:21;;;;;;;2.38;2.28;;;;;;;16.33;90.27;96212.66;5075661;28;20055;-74
2021/07/04 02:46:49;;;;;;;2.58;2.47;;;;;;;16.33;90.38;96206.59;5075682;28;20048;-74
2021/07/04 02:49:15;;;;;;;2.33;2.22;;;;;;;16.30;90.29;96204.47;5076871;28;20052;-74
2021/07/04 02:51:42;;;;;;;2.35;2.25;;;;;;;16.29;90.32;96211.59;5075905;28;20396;-74
2021/07/04 02:54:10;;;;;;;2.28;2.17;;;;;;;16.29;90.45;96205.50;5075942;28;20033;-75
2021/07/04 02:56:37;;;;;;;3.65;2.03;;;;;;;16.31;90.23;96203.41;5075573;28;20052;-74
2021/07/04 02:59:05;;;;;;;2.30;2.03;;;;;;;16.31;90.24;96195.47;5076044;28;20045;-74
2021/07/04 03:01:32;;;;;;;2.38;2.17;;;;;;;16.31;90.21;96201.53;5074055;28;20040;-73
2021/07/04 03:04:00;;;;;;;2.10;2.00;;;;;;;16.30;90.19;96199.19;5075371;28;20044;-74
2021/07/04 03:06:27;;;;;;;2.50;2.30;;;;;;;16.27;90.16;96197.81;5075920;28;20503;-74
2021/07/04 03:08:54;;;;;;;2.38;2.13;;;;;;;16.24;90.09;96193.06;5076081;28;20500;-74
2021/07/04 03:11:21;;;;;;;2.45;2.10;;;;;;;16.23;90.11;96186.16;5067411;28;20044;-74
2021/07/04 03:13:47;;;;;;;2.40;2.08;;;;;;;16.22;90.10;96184.59;5075207;28;20052;-73
2021/07/04 03:16:13;;;;;;;2.67;2.38;;;;;;;16.21;90.16;96183.81;5075679;28;20051;-74
2021/07/04 03:18:39;;;;;;;2.35;2.25;;;;;;;16.22;90.07;96189.88;5074880;28;20056;-75
2021/07/04 03:21:05;;;;;;;2.25;2.15;;;;;;;16.20;90.26;96179.56;5074984;28;20055;-74
2021/07/04 03:23:31;;;;;;;2.30;2.20;;;;;;;16.20;90.13;96187.50;5075737;28;20040;-74
2021/07/04 03:25:58;;;;;;;2.38;2.25;;;;;;;16.18;90.29;96186.94;5075848;28;20044;-74
2021/07/04 03:28:24;;;;;;;2.08;1.98;;;;;;;16.18;90.29;96191.47;5075810;28;20035;-74
2021/07/04 03:30:50;;;;;;;2.10;2.00;;;;;;;16.17;90.42;96189.88;5074662;28;20077;-74
2021/07/04 03:33:17;;;;;;;2.30;2.20;;;;;;;16.15;90.36;96187.50;5075510;28;20055;-74
2021/07/04 03:35:43;;;;;;;1.98;1.88;;;;;;;16.15;90.26;96190.13;5075444;28;20032;-74
2021/07/04 03:38:10;;;;;;;2.10;2.00;;;;;;;16.14;90.26;96185.88;5075496;28;20476;-74
2021/07/04 03:40:36;;;;;;;2.25;2.05;;;;;;;16.15;90.39;96189.34;5075240;28;20040;-74
2021/07/04 03:43:02;;;;;;;2.42;2.20;;;;;;;16.12;90.52;96179.25;5075351;28;20366;-74
2021/07/04 03:45:28;;;;;;;2.45;2.30;;;;;;;16.09;90.38;96185.88;5074851;28;20056;-74
2021/07/04 03:47:54;;;;;;;3.17;2.88;;;;;;;16.08;90.47;96186.91;5074616;28;20508;-74
2021/07/04 03:50:20;;;;;;;2.22;2.13;;;;;;;16.06;90.41;96194.31;5075224;28;20055;-73
2021/07/04 03:52:48;;;;;;;2.15;2.05;;;;;;;16.03;90.60;96189.56;5074808;28;20043;-74
2021/07/04 03:55:14;;;;;;;2.55;2.40;;;;;;;15.98;90.66;96205.38;5075110;28;20036;-74
2021/07/04 03:57:41;;;;;;;2.47;2.28;;;;;;;15.99;90.79;96204.34;5074904;28;20488;-74
2021/07/04 04:00:08;;;;;;;3.50;3.20;;;;;;;16.00;91.04;96205.91;5074960;28;20044;-73
2021/07/04 04:02:34;;;;;;;2.50;2.40;;;;;;;15.98;91.00;96203.56;5074785;28;20048;-74
2021/07/04 04:05:00;;;;;;;2.15;2.05;;;;;;;15.99;91.03;96201.69;5073815;28;20416;-74
2021/07/04 04:07:28;;;;;;;2.30;2.20;;;;;;;15.97;91.19;96209.88;5074945;28;20033;-75
2021/07/04 04:09:54;;;;;;;2.45;2.25;;;;;;;15.96;91.23;96202.22;5064240;28;20055;-74
2021/07/04 04:12:21;;;;;;;2.38;2.20;;;;;;;15.98;91.38;96206.19;5074610;28;20358;-73
2021/07/04 04:14:48;;;;;;;2.25;2.15;;;;;;;16.00;91.31;96206.75;5074459;28;20039;-74
2021/07/04 04:17:14;;;;;;;2.63;2.42;;;;;;;16.04;91.41;96209.66;5074466;28;20048;-73
2021/07/04 04:19:42;;;;;;;2.38;2.28;;;;;;;16.05;91.50;96211.25;5074556;28;20036;-74
2021/07/04 04:22:08;;;;;;;2.20;2.10;;;;;;;16.07;91.27;96208.34;5074963;28;20039;-74
2021/07/04 04:24:35;;;;;;;2.40;2.20;;;;;;;16.08;91.28;96210.72;5074788;28;20040;-74
2021/07/04 04:27:01;;;;;;;2.00;1.90;;;;;;;16.10;91.27;96213.13;5073967;28;20042;-73
2021/07/04 04:29:27;;;;;;;2.45;2.10;;;;;;;16.11;91.17;96204.94;5074188;28;20039;-74
2021/07/04 04:31:53;;;;;;;2.70;2.50;;;;;;;16.09;91.18;96199.09;5073770;28;20040;-74
2021/07/04 04:34:19;;;;;;;2.55;2.35;;;;;;;16.09;91.11;96195.66;5074399;28;20069;-73
2021/07/04 04:36:45;;;;;;;3.55;2.20;;;;;;;16.09;91.14;96199.09;5074103;28;20043;-74
2021/07/04 04:39:12;;;;;;;2.83;2.42;;;;;;;16.12;91.12;96190.63;5074287;28;20377;-73
2021/07/04 04:41:38;;;;;;;4.10;2.95;;;;;;;16.08;90.94;96189.56;5074102;28;20043;-73
2021/07/04 04:44:05;;;;;;;2.40;2.30;;;;;;;16.06;90.97;96186.38;5073636;28;20049;-73
2021/07/04 04:46:32;;;;;;;2.22;2.13;;;;;;;16.10;91.22;96174.22;5073963;28;20075;-73
2021/07/04 04:48:59;;;;;;;2.65;2.55;;;;;;;16.15;90.96;96168.19;5074224;28;20036;-73
2021/07/04 04:51:25;;;;;;;2.53;2.42;;;;;;;16.18;91.02;96167.66;5073122;28;20047;-74
2021/07/04 04:53:51;;;;;;;2.70;2.50;;;;;;;16.21;91.10;96160.00;5073178;28;20060;-75
2021/07/04 04:56:18;;;;;;;2.22;2.13;;;;;;;16.29;91.20;96163.97;5073604;28;20389;-75
2021/07/04 04:58:44;;;;;;;2.42;2.33;;;;;;;16.37;91.18;96171.41;5073740;28;20037;-74
2021/07/04 05:01:11;;;;;;;2.55;2.45;;;;;;;16.42;90.77;96162.66;5073235;28;20373;-74
2021/07/04 05:03:37;;;;;;;2.38;2.17;;;;;;;16.49;90.51;96151.84;5073696;28;20044;-73
2021/07/04 05:06:04;;;;;;;3.47;2.85;;;;;;;16.64;90.43;96142.06;5073668;28;20468;-73
2021/07/04 05:08:30;;;;;;;2.42;2.22;;;;;;;16.83;90.11;96155.59;5073589;28;20044;-73
2021/07/04 05:10:57;;;;;;;2.60;2.50;;;;;;;16.86;89.04;96156.13;5073542;28;20041;-74
2021/07/04 05:13:23;;;;;;;2.03;1.90;;;;;;;16.85;88.88;96152.69;5073355;28;20051;-74
2021/07/04 05:15:50;;;;;;;2.65;2.15;;;;;;;16.82;88.69;96148.72;5072917;28;20500;-74
2021/07/04 05:18:17;;;;;;;2.58;2.22;;;;;;;16.80;88.70;96145.56;5073366;28;20392;-73
2021/07/04 05:20:44;;;;;;;2.15;2.05;;;;;;;16.78;88.89;96142.34;5073157;28;20036;-74
2021/07/04 05:23:12;;;;;;;2.42;2.30;;;;;;;16.83;88.89;96150.31;5073070;28;20036;-74
2021/07/04 05:25:40;;;;;;;2.42;2.22;;;;;;;16.90;88.71;96157.19;5071643;28;20071;-74
2021/07/04 05:28:08;;;;;;;2.40;2.20;;;;;;;17.01;88.91;96150.84;5073016;28;20047;-73
2021/07/04 05:30:35;;;;;;;2.38;2.25;;;;;;;17.12;88.44;96143.69;5072238;28;20035;-73
2021/07/04 05:33:03;;;;;;;2.55;2.45;;;;;;;17.12;88.07;96146.34;5073122;28;20035;-74
2021/07/04 05:35:30;;;;;;;2.13;2.03;;;;;;;17.04;87.60;96137.84;5073080;28;20483;-73
2021/07/04 05:37:58;;;;;;;3.55;2.40;;;;;;;16.92;87.62;96136.53;5072533;28;20437;-74
2021/07/04 05:40:25;;;;;;;2.28;2.05;;;;;;;16.78;87.67;96129.09;5073175;28;20051;-73
2021/07/04 05:42:56;;;;;;;2.38;2.17;;;;;;;16.74;88.16;96132.53;5073084;28;20047;-74
2021/07/04 05:45:26;;;;;;;2.63;2.40;;;;;;;16.75;88.45;96132.25;5072371;28;20064;-73
2021/07/04 05:47:55;;;;;;;2.10;2.00;;;;;;;16.83;88.54;96141.56;5073383;28;20063;-74
2021/07/04 05:50:22;;;;;;;2.45;2.30;;;;;;;16.96;88.43;96141.03;5072978;28;20039;-73
2021/07/04 05:52:49;;;;;;;2.63;2.42;;;;;;;16.96;87.88;96137.59;5072663;28;20048;-73
2021/07/04 05:55:17;;;;;;;2.30;2.13;;;;;;;16.93;87.66;96138.13;5072994;28;20047;-73
2021/07/04 05:57:44;;;;;;;2.80;2.70;;;;;;;16.93;87.65;96130.19;5072951;28;20488;-74
2021/07/04 06:00:13;;;;;;;2.78;2.42;;;;;;;17.03;88.24;96130.97;5073197;28;20035;-73
2021/07/04 06:02:39;;;;;;;2.58;2.38;;;;;;;17.32;88.31;96132.25;5072115;28;20048;-73
2021/07/04 06:05:06;;;;;;;2.17;2.08;;;;;;;17.48;86.99;96135.66;5072592;28;20059;-73
2021/07/04 06:07:33;;;;;;;2.22;2.13;;;;;;;17.56;86.69;96133.25;5071577;28;20056;-74
2021/07/04 06:10:02;;;;;;;2.42;2.03;;;;;;;17.71;86.45;96137.72;5073262;28;20489;-75
2021/07/04 06:12:30;;;;;;;2.05;1.95;;;;;;;17.75;85.08;96137.97;5059651;28;20036;-73
2021/07/04 06:14:57;;;;;;;2.53;2.20;;;;;;;17.71;84.91;96139.56;5072739;28;20040;-74
2021/07/04 06:17:25;;;;;;;2.22;2.13;;;;;;;17.70;85.00;96145.94;5072680;28;20041;-74
2021/07/04 06:19:53;;;;;;;2.65;2.00;;;;;;;17.72;85.03;96146.47;5072780;28;20048;-74
2021/07/04 06:22:20;;;;;;;2.08;1.98;;;;;;;17.73;84.63;96145.41;5072971;28;20032;-74
2021/07/04 06:24:47;;;;;;;1.70;1.60;;;;;;;17.77;84.61;96154.41;5072403;28;20039;-74
2021/07/04 06:27:15;;;;;;;1.90;1.80;;;;;;;17.84;84.65;96154.94;5072580;28;20047;-74
2021/07/04 06:29:41;;;;;;;1.90;1.80;;;;;;;17.91;84.45;96150.16;5072145;28;20041;-74
2021/07/04 06:32:07;;;;;;;1.90;1.80;;;;;;;17.97;84.43;96158.84;5072401;28;20048;-74
2021/07/04 06:34:34;;;;;;;2.30;2.10;;;;;;;17.93;83.62;96161.28;5072408;28;20087;-74
2021/07/04 06:37:00;;;;;;;2.08;1.98;;;;;;;17.92;83.69;96164.19;5072583;28;20029;-74
2021/07/04 06:39:26;;;;;;;2.00;1.90;;;;;;;17.92;83.56;96157.03;5072228;28;20048;-74
2021/07/04 06:41:52;;;;;;;2.13;2.03;;;;;;;17.90;83.52;96158.38;5072920;28;20358;-74
2021/07/04 06:44:18;;;;;;;2.13;2.03;;;;;;;17.78;83.35;96150.69;5071739;28;20504;-74
2021/07/04 06:46:44;;;;;;;2.53;2.33;;;;;;;17.69;83.67;96139.84;5070883;28;20056;-74
2021/07/04 06:49:10;;;;;;;2.60;2.40;;;;;;;17.55;83.62;96130.88;5072312;28;20041;-75
2021/07/04 06:51:36;;;;;;;2.00;1.90;;;;;;;17.49;84.18;96138.06;5073109;28;20032;-74
2021/07/04 06:54:02;;;;;;;2.15;2.05;;;;;;;17.54;84.36;96142.53;5072580;28;20085;-74
2021/07/04 06:56:29;;;;;;;3.03;2.30;;;;;;;17.57;84.49;96145.44;5072518;28;20380;-74
2021/07/04 06:58:55;;;;;;;2.60;2.50;;;;;;;17.64;84.53;96147.81;5071886;28;20044;-74
2021/07/04 07:01:21;;;;;;;2.30;2.20;;;;;;;17.74;84.90;96141.69;5072257;28;20461;-74
2021/07/04 07:03:47;;;;;;;2.13;2.03;;;;;;;17.74;84.05;96154.94;5072367;28;20041;-74
2021/07/04 07:06:13;;;;;;;2.40;2.20;;;;;;;17.78;84.30;96151.47;5073028;28;20465;-74
2021/07/04 07:08:39;;;;;;;2.45;2.35;;;;;;;17.76;83.86;96152.81;5075631;28;20040;-74
2021/07/04 07:11:06;;;;;;;2.30;2.20;;;;;;;17.70;84.24;96144.09;5075951;28;20048;-74
2021/07/04 07:13:34;;;;;;;2.90;2.35;;;;;;;17.64;84.36;96139.88;5075222;28;20044;-75
2021/07/04 07:16:01;;;;;;;2.15;2.05;;;;;;;17.63;84.51;96141.69;5066292;28;20039;-75
2021/07/04 07:18:30;;;;;;;2.15;2.05;;;;;;;17.84;84.73;96134.50;5075692;28;20044;-74
2021/07/04 07:20:57;;;;;;;2.40;2.30;;;;;;;18.31;84.57;96135.09;5075665;28;20373;-74
2021/07/04 07:23:25;;;;;;;2.20;2.10;;;;;;;18.76;83.59;96122.56;5075760;28;20084;-74
2021/07/04 07:25:53;;;;;;;2.28;2.15;;;;;;;18.97;81.92;96117.88;5075892;28;20055;-74
2021/07/04 07:28:24;;;;;;;2.22;2.13;;;;;;;19.13;80.97;96109.75;5075710;28;20029;-74
2021/07/04 07:30:51;;;;;;;1.92;1.83;;;;;;;19.45;80.55;96101.22;5074683;28;20052;-74
2021/07/04 07:33:19;;;;;;;2.30;2.10;;;;;;;19.82;79.92;96097.88;5075701;28;20031;-74
2021/07/04 07:35:50;;;;;;;2.00;1.90;;;;;;;20.25;79.42;96089.06;5075406;28;20033;-74
2021/07/04 07:38:19;;;;;;;1.65;1.65;;;;;;;20.61;77.97;96080.56;5075826;28;20051;-74
2021/07/04 07:40:46;;;;;;;1.77;1.67;;;;;;;20.88;76.44;96077.97;5075477;28;20032;-74
2021/07/04 07:43:13;;;;;;;1.60;1.58;;;;;;;20.95;75.17;96071.47;5074870;28;20035;-74
2021/07/04 07:45:41;;;;;;;2.17;1.58;;;;;;;21.09;74.65;96073.06;5075049;28;20083;-74
2021/07/04 07:48:07;;;;;;;1.70;1.60;;;;;;;21.33;73.89;96068.66;5074742;28;20059;-74
2021/07/04 07:50:34;;;;;;;1.60;1.60;;;;;;;21.55;72.59;96071.44;5075076;28;20051;-74
2021/07/04 07:53:00;;;;;;;1.67;1.58;;;;;;;21.57;71.37;96068.50;5075344;28;20039;-74
2021/07/04 07:55:27;;;;;;;1.60;1.60;;;;;;;21.63;70.75;96069.97;5074896;28;20036;-74
2021/07/04 07:57:55;;;;;;;1.42;1.40;;;;;;;21.77;70.47;96073.41;5075129;28;20037;-74
2021/07/04 08:00:23;;;;;;;1.55;1.45;;;;;;;22.04;70.01;96072.56;5075167;28;20043;-75
2021/07/04 08:02:50;;;;;;;1.73;1.63;;;;;;;22.35;69.10;96079.16;5074978;28;20052;-74
2021/07/04 08:05:17;;;;;;;1.40;1.30;;;;;;;22.26;67.69;96077.19;5074938;28;20488;-74
2021/07/04 08:07:44;;;;;;;1.10;1.10;;;;;;;22.35;67.35;96087.16;5074342;28;20059;-74
2021/07/04 08:10:13;;;;;;;0.90;0.90;;;;;;;22.64;66.85;96084.88;5074547;28;20028;-74
2021/07/04 08:12:41;;;;;;;1.05;1.05;;;;;;;22.83;65.41;96076.66;5074702;28;20377;-74
2021/07/04 08:15:07;;;;;;;1.75;1.20;;;;;;;22.94;64.47;96079.84;5074885;28;20039;-74
2021/07/04 08:17:33;;;;;;;1.17;1.17;;;;;;;23.09;63.72;96076.81;5074515;28;20492;-73
2021/07/04 08:20:01;;;;;;;1.50;1.40;;;;;;;23.12;63.00;96077.28;5075099;28;20049;-74
2021/07/04 08:22:28;;;;;;;1.13;1.13;;;;;;;23.08;62.00;96071.78;5074671;28;20035;-73
2021/07/04 08:24:56;;;;;;;1.00;1.00;;;;;;;22.99;62.01;96068.22;5074692;28;20032;-74
2021/07/04 08:27:22;;;;;;;1.45;1.35;;;;;;;22.81;61.97;96068.16;5073431;28;20059;-74
2021/07/04 08:29:50;;;;;;;1.10;1.10;;;;;;;22.58;61.88;96069.25;5073553;28;20370;-74
2021/07/04 08:32:17;;;;;;;1.38;1.38;;;;;;;22.60;62.01;96069.75;5074543;28;20028;-74
2021/07/04 08:34:44;;;;;;;1.00;1.00;;;;;;;22.77;61.50;96077.88;5074524;28;20033;-74
2021/07/04 08:37:10;;;;;;;3.08;1.38;;;;;;;23.02;61.32;96068.44;5072678;28;20056;-74
2021/07/04 08:39:36;;;;;;;1.00;1.00;;;;;;;23.15;60.61;96064.09;5074358;28;20041;-74
2021/07/04 08:42:02;;;;;;;1.33;1.23;;;;;;;23.37;60.51;96055.22;5073244;28;20051;-74
2021/07/04 08:44:28;;;;;;;1.20;1.20;;;;;;;23.45;60.08;96054.44;5074051;28;20485;-74
2021/07/04 08:46:57;;;;;;;1.13;1.13;;;;;;;23.35;58.91;96046.72;5074553;28;20404;-74
2021/07/04 08:49:24;;;;;;;1.38;1.38;;;;;;;23.03;59.81;96063.88;5072737;28;20408;-73
2021/07/04 08:51:50;;;;;;;1.40;1.33;;;;;;;22.62;59.92;96068.34;5074185;28;20461;-74
2021/07/04 08:54:16;;;;;;;1.60;1.50;;;;;;;22.41;60.57;96076.06;5073973;28;20047;-74
2021/07/04 08:56:47;;;;;;;1.52;1.42;;;;;;;22.06;61.04;96075.72;5074094;28;20028;-74
2021/07/04 08:59:14;;;;;;;1.38;1.35;;;;;;;21.94;61.58;96069.31;5072617;28;20043;-73
2021/07/04 09:01:47;;;;;;;1.60;1.50;;;;;;;21.90;63.04;96074.47;5073957;28;20032;-74
2021/07/04 09:04:15;;;;;;;1.60;1.50;;;;;;;21.85;62.15;96061.22;5074181;28;20056;-74
2021/07/04 09:06:44;;;;;;;1.50;1.45;;;;;;;21.77;62.35;96061.94;5073669;28;20029;-74
2021/07/04 09:09:27;;;;;;;1.50;1.40;;;;;;;21.77;64.26;96070.72;5074571;28;20028;-74
2021/07/04 09:12:03;;;;;;;1.65;1.55;;;;;;;21.65;62.30;96052.56;5074107;28;20036;-74
2021/07/04 09:14:45;;;;;;;1.75;1.65;;;;;;;21.63;63.64;96054.75;5073866;28;20033;-74
2021/07/04 09:17:16;;;;;;;1.30;1.20;;;;;;;21.63;64.27;96054.75;5073383;28;20032;-74
2021/07/04 09:19:55;;;;;;;1.35;1.30;;;;;;;21.75;62.89;96046.22;5073981;28;20477;-74
2021/07/04 09:22:34;;;;;;;1.13;1.13;;;;;;;21.68;63.47;96056.50;5073914;28;20032;-74
2021/07/04 09:25:26;;;;;;;1.30;1.20;;;;;;;21.69;64.49;96058.09;5073826;28;20035;-73
2021/07/04 09:28:01;;;;;;;1.23;1.20;;;;;;;21.73;64.00;96047.59;5073549;28;20033;-74
2021/07/04 09:31:01;;;;;;;1.20;1.20;;;;;;;22.02;64.03;96040.03;5073792;28;20020;-74
2021/07/04 09:33:35;;;;;;;1.15;1.15;;;;;;;22.17;62.83;96040.78;5060146;28;20028;-73
2021/07/04 09:36:05;;;;;;;1.40;1.40;;;;;;;22.32;63.14;96043.13;5072854;28;20045;-73
2021/07/04 09:38:37;;;;;;;1.25;1.25;;;;;;;22.60;62.16;96027.75;5073401;28;20365;-74
2021/07/04 09:41:06;;;;;;;1.13;1.13;;;;;;;22.68;61.76;96028.91;5073602;28;20029;-73
2021/07/04 09:43:34;;;;;;;1.00;1.00;;;;;;;22.77;61.43;96019.06;5073322;28;20024;-73
2021/07/04 09:46:04;;;;;;;1.50;1.40;;;;;;;22.75;60.71;96012.44;5073439;28;20385;-74
2021/07/04 09:48:42;;;;;;;1.27;1.27;;;;;;;22.83;60.39;96007.13;5073691;28;20052;-73
2021/07/04 09:51:15;;;;;;;1.23;1.23;;;;;;;22.84;57.92;95978.50;5073722;28;20063;-74
2021/07/04 09:53:46;;;;;;;1.75;1.20;;;;;;;22.69;59.89;95996.53;5074223;28;20059;-74
2021/07/04 09:56:15;;;;;;;0.93;0.93;;;;;;;22.68;60.28;96000.31;5072724;28;20040;-74
2021/07/04 09:58:44;;;;;;;1.67;1.13;;;;;;;22.62;60.26;96001.53;5073067;28;20036;-74
2021/07/04 10:01:11;;;;;;;1.17;1.17;;;;;;;22.47;60.11;96004.59;5073711;28;20029;-74
2021/07/04 10:03:40;;;;;;;1.13;1.13;;;;;;;22.25;60.23;96002.69;5073229;28;20028;-73
2021/07/04 10:06:09;;;;;;;1.10;1.10;;;;;;;22.10;60.43;96003.81;5073187;28;20037;-74
2021/07/04 10:08:37;;;;;;;1.50;1.40;;;;;;;21.84;60.67;96011.63;5062618;28;20028;-74
2021/07/04 10:11:09;;;;;;;1.30;1.20;;;;;;;21.67;61.68;96017.56;5073245;28;20036;-74
2021/07/04 10:13:37;;;;;;;1.20;1.20;;;;;;;21.55;61.50;96009.31;5073115;28;20032;-74
2021/07/04 10:16:05;;;;;;;1.38;1.38;;;;;;;21.46;62.17;96003.84;5073265;28;20025;-73
2021/07/04 10:18:32;;;;;;;1.40;1.30;;;;;;;21.51;62.63;95998.44;5072723;28;20059;-74
2021/07/04 10:20:58;;;;;;;1.23;1.23;;;;;;;21.54;63.14;96000.47;5073366;28;20362;-73
2021/07/04 10:23:27;;;;;;;1.67;1.10;;;;;;;21.58;63.19;95995.34;5072488;28;20040;-74
2021/07/04 10:25:55;;;;;;;1.25;1.25;;;;;;;21.67;63.45;95983.69;5071619;28;20036;-74
2021/07/04 10:28:36;;;;;;;0.90;0.90;;;;;;;21.77;63.30;95984.53;5072599;28;20053;-73
2021/07/04 10:31:08;;;;;;;1.10;1.10;;;;;;;21.71;62.30;95989.19;5073263;28;20044;-75
2021/07/04 10:33:35;;;;;;;1.10;1.10;;;;;;;21.68;62.88;95989.81;5072355;28;20481;-73
2021/07/04 10:36:08;;;;;;;0.90;0.90;;;;;;;21.67;62.35;95980.19;5072333;28;20053;-75
2021/07/04 10:38:42;;;;;;;1.10;1.10;;;;;;;21.73;62.74;95997.69;5072969;28;20482;-74
2021/07/04 10:41:30;;;;;;;1.60;1.50;;;;;;;21.73;62.71;95983.56;5075653;28;20480;-74
2021/07/04 10:44:12;;;;;;;1.17;1.17;;;;;;;21.78;62.69;95978.91;5076758;28;20028;-74
2021/07/04 10:46:43;;;;;;;0.93;0.93;;;;;;;21.81;62.61;95980.19;5060530;28;20528;-73
2021/07/04 10:49:14;;;;;;;1.20;1.15;;;;;;;21.78;60.39;95970.13;5077052;28;20527;-74
2021/07/04 10:51:55;;;;;;;1.23;1.17;;;;;;;21.67;60.71;95957.00;5076296;28;20491;-73
2021/07/04 10:54:40;;;;;;;1.35;1.25;;;;;;;21.61;61.66;95955.53;5075444;28;20044;-74
2021/07/04 10:57:30;;;;;;;1.10;1.00;;;;;;;21.66;61.66;95942.06;5061036;28;20021;-74
2021/07/04 11:00:03;;;;;;;1.10;1.10;;;;;;;21.73;62.27;95935.50;5075964;28;20027;-73
2021/07/04 11:02:46;;;;;;;1.30;1.20;;;;;;;21.91;61.58;95933.78;5076386;28;20047;-73
2021/07/04 11:05:34;;;;;;;0.88;0.88;;;;;;;22.07;60.85;95911.75;5076196;28;20044;-74
2021/07/04 11:08:07;;;;;;;1.10;1.10;;;;;;;22.18;60.30;95919.53;5075991;28;20380;-73
2021/07/04 11:10:50;;;;;;;1.10;1.10;;;;;;;22.22;60.97;95923.94;5075962;28;20051;-74
2021/07/04 11:13:17;;;;;;;1.05;1.05;;;;;;;22.27;61.04;95913.16;5062555;28;20029;-73
2021/07/04 11:15:49;;;;;;;0.90;0.90;;;;;;;22.31;60.90;95912.56;5076235;28;20032;-74
2021/07/04 11:18:16;;;;;;;1.15;1.08;;;;;;;22.29;60.53;95910.19;5075865;28;20040;-74
2021/07/04 11:20:47;;;;;;;1.75;1.65;;;;;;;22.25;59.92;95914.56;5076002;28;20055;-74
2021/07/04 11:23:26;;;;;;;1.20;1.10;;;;;;;22.23;59.78;95906.06;5075915;28;20055;-73
2021/07/04 11:25:59;;;;;;;1.10;1.10;;;;;;;22.13;59.99;95909.72;5075274;28;20040;-74
2021/07/04 11:28:36;;;;;;;1.10;1.10;;;;;;;22.08;59.74;95901.84;5075560;28;20028;-74
2021/07/04 11:31:05;;;;;;;1.00;1.00;;;;;;;22.04;59.83;95907.00;5076152;28;20036;-73
2021/07/04 11:33:48;;;;;;;1.05;1.05;;;;;;;22.02;60.31;95906.53;5075915;28;20043;-73
2021/07/04 11:36:22;;;;;;;0.80;0.80;;;;;;;21.99;60.26;95909.81;5067294;28;20385;-74
2021/07/04 11:38:57;;;;;;;1.00;1.00;;;;;;;21.97;60.46;95906.66;5075461;28;20036;-73
2021/07/04 11:41:30;;;;;;;1.10;1.10;;;;;;;21.98;60.65;95905.56;5074769;28;20040;-73